Time;durP1;ratioP1;P1;durP2;ratioP2;P2;SDS_P1;SDS_P2;PMS_P1;PMS_P2;Temp;Humidity;BMP_temperature;BMP_pressure;BME280_temperature;BME280_humidity;BME280_pressure;Samples;Min_cycle;Max_cycle;Signal;HPM_P1;HPM_P2
2022/02/04 00:21:26;;;;;;;21.07;15.57;;;8.30;99.90;;;;;;5073211;28;20444;-73
2022/02/04 00:23:54;;;;;;;18.20;15.80;;;8.30;99.90;;;;;;5073668;28;20524;-73
2022/02/04 00:26:24;;;;;;;21.67;17.33;;;8.30;99.90;;;;;;5073094;28;20480;-73
2022/02/04 00:28:59;;;;;;;18.63;15.30;;;8.30;99.90;;;;;;5073188;28;20465;-73
2022/02/04 00:31:32;;;;;;;17.47;15.00;;;8.30;99.90;;;;;;5072836;28;20517;-72
2022/02/04 00:34:03;;;;;;;18.03;14.43;;;8.30;99.90;;;;;;5072994;28;20930;-73
2022/02/04 00:36:39;;;;;;;18.83;14.70;;;8.30;99.90;;;;;;5073146;28;20500;-73
2022/02/04 00:39:10;;;;;;;18.90;15.63;;;8.20;99.90;;;;;;5073051;28;20439;-73
2022/02/04 00:41:39;;;;;;;17.63;15.70;;;8.10;99.90;;;;;;5076383;28;20476;-73
2022/02/04 00:44:10;;;;;;;25.33;15.70;;;8.10;99.90;;;;;;5076433;28;20498;-73
2022/02/04 00:46:44;;;;;;;18.57;16.13;;;8.20;99.90;;;;;;5076375;28;20433;-73
2022/02/04 00:49:16;;;;;;;18.60;14.70;;;8.20;99.90;;;;;;5076837;28;20428;-73
2022/02/04 00:51:55;;;;;;;17.43;14.87;;;8.10;99.90;;;;;;5076196;28;20472;-73
2022/02/04 00:54:27;;;;;;;18.23;14.27;;;8.20;99.90;;;;;;5075769;28;20779;-73
2022/02/04 01:13:36;;;;;;;16.40;12.30;;;8.30;99.90;;;;;;5075978;28;20446;-73
2022/02/04 01:27:02;;;;;;;16.30;11.93;;;8.10;99.90;;;;;;5075978;28;20879;-73
2022/02/04 01:29:34;;;;;;;13.37;11.80;;;8.20;99.90;;;;;;5075841;28;20482;-73
2022/02/04 01:32:01;;;;;;;15.13;11.20;;;8.20;99.90;;;;;;5075518;28;20484;-73
2022/02/04 01:34:28;;;;;;;14.00;11.47;;;8.20;99.90;;;;;;5075902;28;20444;-73
2022/02/04 01:36:55;;;;;;;14.30;11.00;;;8.30;99.90;;;;;;5076253;28;20448;-73
2022/02/04 01:39:23;;;;;;;13.37;10.57;;;8.30;99.90;;;;;;5075978;28;20448;-73
2022/02/04 01:41:49;;;;;;;15.30;11.40;;;8.30;99.90;;;;;;5075886;28;20469;-73
2022/02/04 01:44:24;;;;;;;17.50;10.60;;;8.30;99.90;;;;;;5075742;28;20455;-73
2022/02/04 01:46:51;;;;;;;15.13;12.37;;;8.30;99.90;;;;;;5075979;28;20443;-73
2022/02/04 01:49:18;;;;;;;12.00;10.03;;;8.40;99.90;;;;;;5075703;28;20445;-73
2022/02/04 01:51:46;;;;;;;15.30;10.50;;;8.50;99.90;;;;;;5075486;28;20465;-73
2022/02/04 01:54:13;;;;;;;14.83;11.50;;;8.50;99.90;;;;;;5075062;28;20429;-73
2022/02/04 01:56:42;;;;;;;13.40;9.60;;;8.50;99.90;;;;;;5075154;28;20492;-73
2022/02/04 01:59:08;;;;;;;10.93;9.67;;;8.60;99.90;;;;;;5074983;28;20437;-73
2022/02/04 02:01:35;;;;;;;11.20;9.43;;;8.60;99.90;;;;;;5075348;28;20830;-73
2022/02/04 02:04:04;;;;;;;10.97;9.87;;;8.60;99.90;;;;;;5075314;28;20455;-73
2022/02/04 02:06:49;;;;;;;9.77;8.77;;;8.70;99.90;;;;;;5075339;28;20440;-73
2022/02/04 02:09:16;;;;;;;9.37;8.10;;;8.70;99.90;;;;;;5075356;28;20432;-73
2022/02/04 02:11:47;;;;;;;9.67;8.67;;;8.80;99.90;;;;;;5074787;28;20460;-73
2022/02/04 02:14:16;;;;;;;11.73;8.70;;;8.80;99.90;;;;;;5075172;28;20429;-73
2022/02/04 02:32:54;;;;;;;10.70;9.60;;;8.80;99.90;;;;;;5074948;28;20576;-73
2022/02/04 02:33:46;;;;;;;10.23;9.10;;;9.00;99.90;;;;;;5074021;28;21004;-73
2022/02/04 02:39:25;;;;;;;9.70;8.70;;;8.90;99.90;;;;;;5051529;28;20421;-73
2022/02/04 02:44:46;;;;;;;10.70;8.60;;;8.90;99.90;;;;;;5070109;28;20440;-73
2022/02/04 02:47:26;;;;;;;9.20;8.30;;;8.90;99.90;;;;;;5074151;28;20485;-73
2022/02/04 02:50:25;;;;;;;10.73;8.00;;;8.90;99.90;;;;;;5074729;28;20437;-73
2022/02/04 02:53:16;;;;;;;10.50;8.70;;;8.90;99.90;;;;;;5073720;28;20476;-73
2022/02/04 02:55:51;;;;;;;12.90;9.30;;;8.80;99.90;;;;;;5075580;28;20487;-73
2022/02/04 02:58:21;;;;;;;10.73;8.80;;;8.90;99.90;;;;;;5074307;28;20481;-73
2022/02/04 03:01:00;;;;;;;10.83;9.73;;;8.80;99.90;;;;;;5073417;28;20470;-72
2022/02/04 03:03:30;;;;;;;12.00;9.20;;;8.80;99.90;;;;;;5073440;28;20854;-73
2022/02/04 03:05:57;;;;;;;11.03;9.40;;;8.80;99.90;;;;;;5073424;28;20445;-73
2022/02/04 03:08:24;;;;;;;12.20;9.43;;;8.80;99.90;;;;;;5073827;28;20538;-73
2022/02/04 03:10:54;;;;;;;10.63;8.93;;;8.80;99.90;;;;;;5073569;28;20459;-73
2022/02/04 03:13:21;;;;;;;11.27;9.53;;;8.80;99.90;;;;;;5073364;28;20436;-73
2022/02/04 03:15:56;;;;;;;10.20;8.83;;;8.90;99.90;;;;;;5073552;28;20484;-73
2022/02/04 03:18:24;;;;;;;13.97;9.80;;;8.90;99.90;;;;;;5073542;28;20523;-73
2022/02/04 03:20:55;;;;;;;9.97;8.87;;;8.90;99.90;;;;;;5073218;28;20449;-73
2022/02/04 03:23:24;;;;;;;11.03;8.63;;;8.90;99.90;;;;;;5073485;28;20441;-73
2022/02/04 03:25:58;;;;;;;12.80;9.13;;;8.90;99.90;;;;;;5073478;28;20445;-73
2022/02/04 03:28:28;;;;;;;8.83;7.93;;;8.90;99.90;;;;;;5073472;28;20435;-73
2022/02/04 03:30:57;;;;;;;11.40;8.47;;;8.90;99.90;;;;;;5073359;28;20444;-73
2022/02/04 03:33:26;;;;;;;11.37;8.17;;;8.90;99.90;;;;;;5072981;28;20460;-73
2022/02/04 03:35:53;;;;;;;11.10;9.37;;;8.90;99.90;;;;;;5073296;28;20520;-73
2022/02/04 03:38:19;;;;;;;9.90;8.40;;;8.90;99.90;;;;;;5073314;28;20444;-73
2022/02/04 03:40:46;;;;;;;11.87;8.40;;;8.90;99.90;;;;;;5073359;28;20452;-73
2022/02/04 03:43:14;;;;;;;8.97;7.90;;;8.90;99.90;;;;;;5073321;28;20448;-73
2022/02/04 03:45:41;;;;;;;12.10;8.70;;;8.90;99.90;;;;;;5073264;28;20445;-73
2022/02/04 03:48:08;;;;;;;9.73;7.90;;;8.90;99.90;;;;;;5073308;28;20449;-73
2022/02/04 03:50:35;;;;;;;10.30;8.47;;;9.00;99.90;;;;;;5073219;28;20456;-73
2022/02/04 03:53:03;;;;;;;10.13;7.90;;;8.90;99.90;;;;;;5073256;28;20463;-73
2022/02/04 03:55:31;;;;;;;8.50;7.20;;;8.90;99.90;;;;;;5073142;28;20511;-73
2022/02/04 03:57:57;;;;;;;8.03;6.67;;;8.90;99.90;;;;;;5072987;28;20512;-73
2022/02/04 04:00:25;;;;;;;8.63;6.83;;;9.00;99.90;;;;;;5073210;28;20818;-73
2022/02/04 04:02:52;;;;;;;7.70;6.90;;;9.00;99.90;;;;;;5073135;28;20477;-73
2022/02/04 04:05:19;;;;;;;9.97;6.53;;;9.00;99.90;;;;;;5073259;28;20456;-73
2022/02/04 04:07:48;;;;;;;7.47;5.90;;;8.90;99.90;;;;;;5072916;28;20947;-73
2022/02/04 04:10:20;;;;;;;7.10;6.40;;;9.00;99.90;;;;;;5073194;28;20456;-73
2022/02/04 04:12:47;;;;;;;8.50;6.47;;;9.00;99.90;;;;;;5073243;28;20874;-73
2022/02/04 04:15:14;;;;;;;7.67;6.37;;;9.00;99.90;;;;;;5074936;28;20449;-73
2022/02/04 04:17:44;;;;;;;6.50;5.20;;;9.00;99.90;;;;;;5077140;28;20432;-73
2022/02/04 04:20:13;;;;;;;7.33;6.47;;;9.00;99.90;;;;;;5077318;28;20448;-73
2022/02/04 04:22:40;;;;;;;7.30;6.23;;;9.00;99.90;;;;;;5076853;28;20468;-73
2022/02/04 04:25:08;;;;;;;7.20;5.97;;;9.10;99.90;;;;;;5076940;28;20440;-73
2022/02/04 04:27:35;;;;;;;12.30;6.73;;;9.10;99.90;;;;;;5076644;28;20970;-73
2022/02/04 04:30:03;;;;;;;7.17;5.60;;;9.10;99.90;;;;;;5076841;28;20796;-73
2022/02/04 04:32:30;;;;;;;7.43;4.80;;;9.10;99.90;;;;;;5076535;28;20480;-73
2022/02/04 04:34:58;;;;;;;8.50;6.00;;;9.10;99.90;;;;;;5076725;28;20448;-73
2022/02/04 04:37:25;;;;;;;5.93;5.30;;;9.10;99.90;;;;;;5076532;28;20480;-73
2022/02/04 04:40:03;;;;;;;6.00;4.87;;;9.10;99.90;;;;;;5076201;28;20931;-73
2022/02/04 04:42:47;;;;;;;8.73;6.13;;;9.10;99.90;;;;;;5076733;28;20538;-73
2022/02/04 04:45:47;;;;;;;7.63;6.57;;;9.10;99.90;;;;;;5076637;28;20467;-73
2022/02/04 05:29:33;;;;;;;6.83;4.97;;;8.90;99.90;;;;;;5064686;28;20440;-73
2022/02/04 05:32:00;;;;;;;6.37;5.00;;;8.80;99.90;;;;;;5075208;28;20484;-73
2022/02/04 05:34:27;;;;;;;6.60;4.90;;;8.80;99.90;;;;;;5075213;28;20449;-73
2022/02/04 05:37:01;;;;;;;7.67;5.33;;;8.90;99.90;;;;;;5075498;28;20487;-73
2022/02/04 05:39:35;;;;;;;6.90;5.20;;;8.90;99.90;;;;;;5075339;28;20851;-73
2022/02/04 05:42:04;;;;;;;7.73;5.20;;;9.00;99.90;;;;;;5075312;28;20467;-73
2022/02/04 05:44:35;;;;;;;7.80;5.47;;;8.90;99.90;;;;;;5075329;28;20506;-73
2022/02/04 05:47:10;;;;;;;5.43;4.30;;;8.90;99.90;;;;;;5075184;28;20433;-73
2022/02/04 05:49:41;;;;;;;6.90;5.63;;;8.90;99.90;;;;;;5075229;28;20475;-73
2022/02/04 05:52:13;;;;;;;8.90;5.43;;;8.90;99.90;;;;;;5075098;28;20556;-73
2022/02/04 05:54:56;;;;;;;5.17;4.60;;;9.00;99.90;;;;;;5075086;28;20799;-73
2022/02/04 05:57:37;;;;;;;7.53;5.87;;;9.00;99.90;;;;;;5075556;28;20518;-73
2022/02/04 06:00:18;;;;;;;5.50;5.00;;;9.00;99.90;;;;;;5074953;28;20429;-73
2022/02/04 06:02:54;;;;;;;4.50;4.10;;;9.10;99.90;;;;;;5074767;28;20469;-73
2022/02/04 06:05:41;;;;;;;4.80;4.30;;;9.10;99.90;;;;;;5074909;28;20443;-73
2022/02/04 06:08:29;;;;;;;7.63;4.23;;;9.10;99.90;;;;;;5074701;28;20440;-73
2022/02/04 06:11:18;;;;;;;7.53;5.10;;;9.10;99.90;;;;;;5074187;28;20915;-73
2022/02/04 06:14:07;;;;;;;5.67;4.47;;;9.10;99.90;;;;;;5074599;28;20440;-73
2022/02/04 06:22:18;;;;;;;3.20;2.90;;;9.00;99.90;;;;;;5074550;28;20563;-73
2022/02/04 06:24:45;;;;;;;5.53;3.80;;;9.10;99.90;;;;;;5074454;28;20433;-73
2022/02/04 06:27:13;;;;;;;4.07;3.50;;;9.10;99.90;;;;;;5074420;28;20432;-73
2022/02/04 06:29:40;;;;;;;4.20;3.80;;;9.20;99.90;;;;;;5074278;28;20452;-73
2022/02/04 06:32:08;;;;;;;4.10;3.40;;;9.20;99.90;;;;;;5073938;28;20499;-73
2022/02/04 06:34:35;;;;;;;4.00;3.43;;;9.20;99.90;;;;;;5074204;28;20460;-73
2022/02/04 06:37:02;;;;;;;3.27;2.97;;;9.20;99.90;;;;;;5073544;28;20487;-73
2022/02/04 06:39:28;;;;;;;3.90;3.50;;;9.20;99.90;;;;;;5073774;28;20448;-73
2022/02/04 06:41:55;;;;;;;4.80;3.53;;;9.10;99.90;;;;;;5074085;28;20475;-73
2022/02/04 06:44:23;;;;;;;4.13;3.67;;;9.10;99.90;;;;;;5074068;28;20451;-73
2022/02/04 06:46:50;;;;;;;5.27;3.60;;;9.10;99.90;;;;;;5074023;28;20429;-73
2022/02/04 06:49:17;;;;;;;5.40;4.20;;;9.00;99.90;;;;;;5074504;28;20468;-73
2022/02/04 06:51:43;;;;;;;4.30;3.70;;;9.00;99.90;;;;;;5073933;28;20468;-73
2022/02/04 06:54:10;;;;;;;4.87;4.30;;;8.90;99.90;;;;;;5073905;28;20429;-73
2022/02/04 06:56:37;;;;;;;5.53;5.00;;;8.90;99.90;;;;;;5073828;28;20900;-73
2022/02/04 06:59:05;;;;;;;5.60;4.63;;;8.90;99.90;;;;;;5073523;28;20456;-73
2022/02/04 07:01:34;;;;;;;10.47;6.33;;;8.80;99.90;;;;;;5073729;28;20464;-73
2022/02/04 07:04:03;;;;;;;9.90;7.03;;;8.70;99.90;;;;;;5073775;28;20444;-73
2022/02/04 07:06:31;;;;;;;6.73;5.97;;;8.70;99.90;;;;;;5073692;28;20445;-73
2022/02/04 07:09:14;;;;;;;7.07;6.37;;;8.60;99.90;;;;;;5073832;28;20502;-73
2022/02/04 07:12:04;;;;;;;7.53;6.40;;;8.60;99.90;;;;;;5073604;28;20472;-73
2022/02/04 07:14:40;;;;;;;8.40;7.43;;;8.50;99.90;;;;;;5073694;28;20429;-73
2022/02/04 07:17:17;;;;;;;9.37;7.13;;;8.40;99.90;;;;;;5073530;28;20464;-73
2022/02/04 07:19:46;;;;;;;9.33;7.80;;;8.40;99.90;;;;;;5073568;28;20441;-73
2022/02/04 07:22:13;;;;;;;8.33;7.33;;;8.40;99.90;;;;;;5073110;28;20998;-73
2022/02/04 07:24:40;;;;;;;8.97;7.13;;;8.50;99.90;;;;;;5073572;28;20445;-73
2022/02/04 07:27:07;;;;;;;14.60;6.87;;;8.50;99.90;;;;;;5073121;28;20479;-73
2022/02/04 07:29:34;;;;;;;7.63;6.50;;;8.60;99.90;;;;;;5073409;28;20453;-74
2022/02/04 07:32:07;;;;;;;6.90;6.17;;;8.70;99.90;;;;;;5072971;28;20877;-73
2022/02/04 07:34:43;;;;;;;7.73;6.50;;;8.70;99.90;;;;;;5073489;28;20440;-73
2022/02/04 07:42:38;;;;;;;7.47;5.97;;;8.90;99.90;;;;;;5073203;28;20448;-73
2022/02/04 07:45:05;;;;;;;6.50;5.70;;;8.90;99.90;;;;;;5073493;28;20467;-73
2022/02/04 07:47:32;;;;;;;5.90;5.30;;;9.00;99.90;;;;;;5073075;28;20475;-73
2022/02/04 07:50:00;;;;;;;11.47;5.13;;;9.00;99.90;;;;;;5077083;28;20437;-74
2022/02/04 07:52:27;;;;;;;6.50;4.40;;;9.00;99.90;;;;;;5077543;28;20464;-68
2022/02/04 07:54:54;;;;;;;7.30;5.33;;;9.10;99.90;;;;;;5077240;28;20440;-68
2022/02/04 07:57:21;;;;;;;6.10;4.60;;;9.10;99.90;;;;;;5077254;28;20507;-68
2022/02/04 07:59:48;;;;;;;8.50;4.80;;;9.20;99.90;;;;;;5077132;28;20451;-68
2022/02/04 08:02:15;;;;;;;5.90;5.30;;;9.20;99.90;;;;;;5077016;28;20472;-68
2022/02/04 08:04:44;;;;;;;6.63;4.70;;;9.20;99.90;;;;;;5077086;28;20429;-68
2022/02/04 08:07:15;;;;;;;5.30;4.27;;;9.20;99.90;;;;;;5077056;28;20444;-68
2022/02/04 08:09:53;;;;;;;5.00;4.50;;;9.20;99.90;;;;;;5077586;28;20435;-68
2022/02/04 08:12:43;;;;;;;4.40;4.00;;;9.30;99.90;;;;;;5076932;28;20495;-68
2022/02/04 08:15:21;;;;;;;5.37;4.23;;;9.40;99.90;;;;;;5077746;28;20778;-68
2022/02/04 08:23:49;;;;;;;6.27;5.27;;;9.40;99.90;;;;;;5076600;28;21088;-68
2022/02/04 08:26:32;;;;;;;5.67;4.57;;;9.40;99.90;;;;;;5076723;28;20435;-71
2022/02/04 08:29:14;;;;;;;8.40;5.50;;;9.50;99.90;;;;;;5076377;28;20461;-70
2022/02/04 08:32:01;;;;;;;7.40;5.77;;;9.50;99.90;;;;;;5076255;28;20476;-71
2022/02/04 08:34:43;;;;;;;6.73;5.97;;;9.50;99.90;;;;;;5076526;28;20440;-71
2022/02/04 08:56:36;;;;;;;6.80;5.57;;;9.90;99.90;;;;;;5075892;28;20428;-70
2022/02/04 08:59:10;;;;;;;6.63;4.90;;;10.00;99.90;;;;;;5076299;28;20433;-71
2022/02/04 09:01:45;;;;;;;8.40;4.60;;;10.00;99.90;;;;;;5075345;28;20464;-71
2022/02/04 09:04:16;;;;;;;5.30;4.80;;;10.20;99.90;;;;;;5076003;28;20522;-71
2022/02/04 09:06:49;;;;;;;6.00;4.80;;;10.20;99.90;;;;;;5076032;28;20433;-73
2022/02/04 09:09:27;;;;;;;5.83;4.80;;;10.10;99.90;;;;;;5075712;28;20429;-70
2022/02/04 09:12:06;;;;;;;7.63;4.60;;;10.10;99.90;;;;;;5075853;28;20554;-70
2022/02/04 09:17:55;;;;;;;6.00;5.30;;;10.00;99.90;;;;;;5033479;28;20477;-70
2022/02/04 09:20:28;;;;;;;4.50;4.10;;;10.00;99.90;;;;;;5071798;28;20815;-72
2022/02/04 09:22:56;;;;;;;4.60;4.20;;;10.10;99.90;;;;;;5075616;28;20478;-70
2022/02/04 09:25:22;;;;;;;5.37;4.87;;;10.00;99.90;;;;;;5075658;28;20453;-70
2022/02/04 09:27:51;;;;;;;4.77;4.37;;;10.10;99.90;;;;;;5075277;28;20440;-70
2022/02/04 09:30:19;;;;;;;4.67;3.70;;;10.00;99.90;;;;;;5075614;28;20495;-70
2022/02/04 09:32:46;;;;;;;3.80;3.50;;;10.00;99.90;;;;;;5075033;28;20488;-70
2022/02/04 09:35:15;;;;;;;4.63;4.00;;;9.90;99.90;;;;;;5075423;28;20468;-70
2022/02/04 09:37:42;;;;;;;4.40;4.00;;;9.90;99.90;;;;;;5075335;28;20504;-70
2022/02/04 09:40:12;;;;;;;3.57;3.27;;;9.90;99.90;;;;;;5075368;28;20452;-70
2022/02/04 09:42:39;;;;;;;4.30;3.67;;;10.00;99.90;;;;;;5075274;28;20533;-70
2022/02/04 09:45:09;;;;;;;5.30;2.80;;;10.00;99.90;;;;;;5075318;28;20803;-70
2022/02/04 09:47:37;;;;;;;2.93;2.63;;;10.00;99.90;;;;;;5075644;28;20445;-70
2022/02/04 09:50:06;;;;;;;5.23;2.33;;;10.00;99.90;;;;;;5075697;28;20908;-70
2022/02/04 10:09:32;;;;;;;3.40;2.10;;;9.90;99.90;;;;;;5074870;28;20417;-70
2022/02/04 10:12:15;;;;;;;3.33;2.40;;;9.90;99.90;;;;;;5073408;28;20544;-70
2022/02/04 10:17:27;;;;;;;4.50;2.53;;;9.70;99.90;;;;;;5072196;28;20494;-70
2022/02/04 10:19:59;;;;;;;2.70;2.50;;;9.70;99.90;;;;;;5074529;28;20848;-70
2022/02/04 10:22:29;;;;;;;2.90;2.60;;;9.80;99.90;;;;;;5074392;28;20469;-70
2022/02/04 10:25:01;;;;;;;2.77;2.53;;;9.80;99.90;;;;;;5074735;28;20445;-70
2022/02/04 10:27:30;;;;;;;4.10;2.30;;;9.80;99.90;;;;;;5074365;28;20436;-70
2022/02/04 10:29:59;;;;;;;3.53;2.53;;;9.90;99.90;;;;;;5074003;28;20963;-70
2022/02/04 10:32:41;;;;;;;2.83;2.50;;;9.80;99.90;;;;;;5073905;28;20487;-70
2022/02/04 10:35:14;;;;;;;3.90;3.00;;;9.90;99.90;;;;;;5074280;28;20433;-70
2022/02/04 10:37:44;;;;;;;2.53;2.33;;;10.00;99.90;;;;;;5074212;28;20523;-70
2022/02/04 10:40:29;;;;;;;2.73;2.37;;;10.00;99.90;;;;;;5074203;28;20433;-70
2022/02/04 10:43:18;;;;;;;2.77;2.57;;;10.20;99.90;;;;;;5074081;28;20872;-71
2022/02/04 10:45:56;;;;;;;2.17;1.90;;;10.20;99.90;;;;;;5074128;28;20804;-70
2022/02/04 10:54:37;;;;;;;1.60;1.43;;;10.40;99.90;;;;;;5073964;28;20558;-70
2022/02/04 10:57:14;;;;;;;1.73;1.63;;;10.50;99.90;;;;;;5073355;28;20439;-71
2022/02/04 11:02:53;;;;;;;2.23;1.50;;;10.30;99.90;;;;;;5073672;28;20521;-70
2022/02/04 11:05:30;;;;;;;2.33;1.87;;;10.30;99.90;;;;;;5074206;28;20789;-70
2022/02/04 11:08:12;;;;;;;1.63;1.53;;;10.30;99.90;;;;;;5073980;28;20424;-70
2022/02/04 11:11:03;;;;;;;1.70;1.60;;;10.30;99.90;;;;;;5073781;28;20437;-70
2022/02/04 11:30:54;;;;;;;2.60;1.77;;;10.50;99.90;;;;;;5073666;28;20440;-70
2022/02/04 11:31:04;;;;;;;2.23;1.90;;;10.50;99.90;;;;;;5073674;28;20761;-70
2022/02/04 11:33:52;;;;;;;2.60;1.50;;;10.50;99.90;;;;;;5011347;28;20459;-70
2022/02/04 11:36:42;;;;;;;2.77;1.90;;;10.40;99.90;;;;;;5011607;28;20415;-70
2022/02/04 11:51:39;;;;;;;2.43;2.23;;;10.30;99.90;;;;;;5055071;28;20451;-70
2022/02/04 11:54:35;;;;;;;2.87;1.80;;;10.30;99.90;;;;;;5072987;28;20435;-70
2022/02/04 11:57:20;;;;;;;3.07;1.97;;;10.30;99.90;;;;;;5067449;28;20487;-70
2022/02/04 11:59:49;;;;;;;1.53;1.43;;;10.30;99.90;;;;;;5073222;28;20451;-70
2022/02/04 12:02:34;;;;;;;2.60;2.03;;;10.30;99.90;;;;;;5072777;28;20464;-70
2022/02/04 12:05:30;;;;;;;2.40;1.87;;;10.20;99.90;;;;;;5073199;28;20432;-70
2022/02/04 12:08:11;;;;;;;1.97;1.80;;;10.30;99.90;;;;;;5073133;28;20417;-70
2022/02/04 12:10:44;;;;;;;1.60;1.50;;;10.30;99.90;;;;;;5073172;28;20511;-70
2022/02/04 12:13:11;;;;;;;1.83;1.60;;;10.30;99.90;;;;;;5073109;28;20461;-70
2022/02/04 12:15:42;;;;;;;3.40;1.70;;;10.20;99.90;;;;;;5073056;28;20455;-70
2022/02/04 12:18:10;;;;;;;2.00;1.80;;;10.20;99.90;;;;;;5073008;28;20468;-70
2022/02/04 12:21:01;;;;;;;3.20;1.80;;;10.20;99.90;;;;;;5073005;28;20459;-70
2022/02/04 12:23:46;;;;;;;2.23;2.03;;;10.20;99.90;;;;;;5073058;28;20444;-70
2022/02/04 12:26:23;;;;;;;2.83;2.53;;;10.20;99.90;;;;;;5073040;28;20445;-70
2022/02/04 12:28:55;;;;;;;2.60;1.90;;;10.30;99.90;;;;;;5073459;28;20432;-70
2022/02/04 12:31:25;;;;;;;2.10;1.90;;;10.40;99.90;;;;;;5072458;28;20978;-70
2022/02/04 12:33:54;;;;;;;2.63;2.37;;;10.50;99.90;;;;;;5072969;28;20439;-70
2022/02/04 12:36:24;;;;;;;2.23;2.03;;;10.50;99.90;;;;;;5074707;28;20437;-70
2022/02/04 12:38:52;;;;;;;2.63;2.40;;;10.60;99.90;;;;;;5076615;28;20538;-71
2022/02/04 12:41:22;;;;;;;3.10;2.20;;;10.60;99.90;;;;;;5076367;28;20468;-70
2022/02/04 12:43:51;;;;;;;2.80;2.10;;;10.50;99.50;;;;;;5076482;28;20433;-71
2022/02/04 12:46:19;;;;;;;7.57;1.80;;;10.50;99.60;;;;;;5076436;28;20452;-70
2022/02/04 12:49:04;;;;;;;3.07;2.03;;;10.40;99.40;;;;;;5076300;28;20808;-70
2022/02/04 12:54:32;;;;;;;2.70;2.50;;;10.30;99.90;;;;;;5075561;28;20440;-69
2022/02/04 12:59:57;;;;;;;2.47;2.27;;;10.30;99.80;;;;;;5075876;28;20424;-69
2022/02/04 13:02:37;;;;;;;4.70;3.00;;;10.40;99.80;;;;;;5076009;28;20468;-70
2022/02/04 13:07:56;;;;;;;4.67;2.83;;;10.40;99.60;;;;;;5075803;28;20400;-70
2022/02/04 13:10:25;;;;;;;3.30;2.77;;;10.40;99.00;;;;;;5075709;28;20927;-70
2022/02/04 13:12:58;;;;;;;4.20;3.20;;;10.30;99.80;;;;;;5075857;28;20452;-70
2022/02/04 13:15:27;;;;;;;4.50;2.77;;;10.40;99.60;;;;;;5075874;28;20437;-70
2022/02/04 13:17:54;;;;;;;5.23;2.73;;;10.30;99.60;;;;;;5075704;28;20481;-70
2022/02/04 13:20:22;;;;;;;3.87;3.13;;;10.30;99.60;;;;;;5075688;28;20451;-70
2022/02/04 13:22:50;;;;;;;3.43;2.57;;;10.50;99.10;;;;;;5075596;28;20465;-70
2022/02/04 13:25:19;;;;;;;3.90;3.40;;;10.70;99.10;;;;;;5075293;28;20498;-70
2022/02/04 13:28:04;;;;;;;3.53;3.10;;;10.90;98.70;;;;;;5075512;28;20502;-70
2022/02/04 13:30:32;;;;;;;4.07;2.83;;;11.10;97.90;;;;;;5073729;28;20488;-70
2022/02/04 13:33:00;;;;;;;2.27;1.80;;;11.10;97.50;;;;;;5075082;28;20480;-69
2022/02/04 13:35:30;;;;;;;3.90;2.60;;;11.10;97.40;;;;;;5075539;28;20475;-69
2022/02/04 13:38:02;;;;;;;4.93;2.77;;;11.10;97.70;;;;;;5076208;28;20472;-69
2022/02/04 13:40:49;;;;;;;4.37;2.97;;;11.10;97.90;;;;;;5075475;28;20441;-69
2022/02/04 13:43:36;;;;;;;3.30;2.17;;;11.10;98.00;;;;;;5075339;28;20440;-69
2022/02/04 13:46:13;;;;;;;5.20;2.60;;;11.00;98.00;;;;;;5075213;28;20457;-69
2022/02/04 13:49:00;;;;;;;3.13;2.80;;;11.00;98.40;;;;;;5075196;28;20481;-69
2022/02/04 13:51:42;;;;;;;3.83;2.73;;;10.90;98.10;;;;;;5075172;28;20498;-70
2022/02/04 13:54:28;;;;;;;3.70;2.53;;;10.80;98.50;;;;;;5074825;28;20841;-70
2022/02/04 13:57:23;;;;;;;3.17;1.90;;;10.80;99.00;;;;;;5075044;28;20447;-70
2022/02/04 14:00:19;;;;;;;7.00;2.20;;;10.70;98.60;;;;;;5075060;28;20457;-70
2022/02/04 14:02:48;;;;;;;3.30;2.37;;;10.70;97.90;;;;;;5074630;28;20478;-70
2022/02/04 14:05:25;;;;;;;5.40;2.40;;;10.70;98.20;;;;;;5074751;28;20550;-70
2022/02/04 14:07:55;;;;;;;2.10;1.90;;;10.80;97.70;;;;;;5074923;28;20424;-70
2022/02/04 14:10:28;;;;;;;3.10;2.10;;;10.90;97.60;;;;;;5074470;28;20924;-70
2022/02/04 14:13:04;;;;;;;3.40;2.07;;;10.90;97.10;;;;;;5074791;28;20468;-70
2022/02/04 14:15:33;;;;;;;2.10;1.57;;;11.00;96.30;;;;;;5074664;28;20451;-70
2022/02/04 14:18:05;;;;;;;5.13;1.80;;;11.10;96.10;;;;;;5074535;28;20455;-70
2022/02/04 14:20:32;;;;;;;2.43;1.53;;;11.10;95.20;;;;;;5074621;28;20433;-70
2022/02/04 14:22:58;;;;;;;3.30;1.50;;;11.10;95.20;;;;;;5074476;28;20469;-70
2022/02/04 14:25:25;;;;;;;4.67;1.97;;;11.10;95.30;;;;;;5074367;28;20456;-70
2022/02/04 14:27:56;;;;;;;2.30;1.73;;;11.10;95.00;;;;;;5074119;28;20444;-70
2022/02/04 14:30:28;;;;;;;5.37;2.03;;;11.00;95.30;;;;;;5074384;28;20476;-70
2022/02/04 14:33:02;;;;;;;4.07;2.00;;;10.90;95.40;;;;;;5074025;28;20492;-70
2022/02/04 14:35:41;;;;;;;4.23;2.03;;;10.80;96.10;;;;;;5074292;28;20439;-70
2022/02/04 14:49:37;;;;;;;8.23;2.17;;;10.60;97.10;;;;;;5073743;28;20399;-70
2022/02/04 14:52:23;;;;;;;2.70;1.80;;;10.70;97.40;;;;;;5074366;28;20499;-70
2022/02/04 14:58:39;;;;;;;4.50;2.20;;;10.70;96.40;;;;;;5073886;28;20464;-70
2022/02/04 15:03:25;;;;;;;4.40;2.00;;;10.60;96.40;;;;;;5073926;28;20488;-70
2022/02/04 15:06:02;;;;;;;4.30;1.37;;;10.60;96.50;;;;;;5073804;28;20447;-70
2022/02/04 15:08:32;;;;;;;2.20;2.00;;;10.50;96.80;;;;;;5074321;28;20425;-70
2022/02/04 15:11:01;;;;;;;4.30;1.67;;;10.50;96.80;;;;;;5073262;28;20944;-71
2022/02/04 15:13:29;;;;;;;3.90;1.40;;;10.50;97.00;;;;;;5073626;28;20821;-70
2022/02/04 15:15:56;;;;;;;3.43;1.90;;;10.40;97.20;;;;;;5073688;28;20819;-70
2022/02/04 15:18:23;;;;;;;1.80;1.50;;;10.30;98.30;;;;;;5073536;28;20567;-69
2022/02/04 15:20:53;;;;;;;3.90;1.50;;;10.10;99.10;;;;;;5073642;28;20858;-69
2022/02/04 15:23:21;;;;;;;5.07;1.73;;;10.00;99.90;;;;;;5073482;28;20448;-69
2022/02/04 15:25:52;;;;;;;4.57;1.47;;;9.90;99.90;;;;;;5073360;28;20448;-69
2022/02/04 15:28:34;;;;;;;3.47;2.03;;;9.80;99.90;;;;;;5073597;28;20437;-69
2022/02/04 15:31:02;;;;;;;2.70;1.37;;;9.70;99.90;;;;;;5073555;28;20429;-69
2022/02/04 15:33:33;;;;;;;5.20;1.70;;;9.50;99.90;;;;;;5073092;28;20466;-69
2022/02/04 15:36:00;;;;;;;2.60;1.40;;;9.40;99.90;;;;;;5073575;28;20480;-69
2022/02/04 15:38:29;;;;;;;5.60;1.77;;;9.30;99.90;;;;;;5073396;28;20578;-71
2022/02/04 15:40:57;;;;;;;2.13;1.60;;;9.30;99.90;;;;;;5073422;28;20445;-70
2022/02/04 15:43:26;;;;;;;9.93;1.80;;;9.20;99.90;;;;;;5073304;28;20902;-69
2022/02/04 15:49:01;;;;;;;3.13;1.90;;;9.10;99.90;;;;;;5050805;28;20435;-69
2022/02/04 15:51:39;;;;;;;4.47;2.70;;;9.10;99.90;;;;;;5072868;28;20987;-69
2022/02/04 15:54:21;;;;;;;3.03;1.30;;;9.20;99.90;;;;;;5073310;28;20433;-69
2022/02/04 15:56:56;;;;;;;3.20;1.67;;;9.20;99.90;;;;;;5072931;28;20911;-69
2022/02/04 15:59:59;;;;;;;2.53;1.73;;;9.10;99.90;;;;;;5073251;28;20547;-68
2022/02/04 16:02:39;;;;;;;4.47;2.00;;;9.00;99.90;;;;;;5072912;28;20464;-68
2022/02/04 16:05:08;;;;;;;1.90;1.53;;;9.10;99.90;;;;;;5073959;28;20555;-69
2022/02/04 16:07:35;;;;;;;2.47;1.50;;;9.00;99.90;;;;;;5073405;28;20444;-67
2022/02/04 16:10:15;;;;;;;2.53;1.67;;;9.00;99.90;;;;;;5074728;28;20451;-68
2022/02/04 16:12:52;;;;;;;2.40;2.03;;;8.90;99.90;;;;;;5077119;28;20496;-68
2022/02/04 16:15:31;;;;;;;4.47;2.07;;;8.90;99.90;;;;;;5077115;28;20460;-68
2022/02/04 16:18:01;;;;;;;1.77;1.67;;;8.90;99.90;;;;;;5076683;28;20489;-67
2022/02/04 16:20:50;;;;;;;3.20;2.07;;;8.80;99.90;;;;;;5076863;28;20484;-67
2022/02/04 16:23:26;;;;;;;4.80;2.37;;;8.70;99.90;;;;;;5076401;28;20464;-67
2022/02/04 16:26:01;;;;;;;2.13;1.70;;;8.70;99.90;;;;;;5076775;28;20428;-67
2022/02/04 16:28:41;;;;;;;3.00;1.50;;;8.60;99.90;;;;;;5076763;28;20459;-67
2022/02/04 16:31:08;;;;;;;3.07;2.60;;;8.60;99.90;;;;;;5076664;28;20804;-67
2022/02/04 16:33:35;;;;;;;2.10;1.50;;;8.60;99.90;;;;;;5076281;28;20456;-68
2022/02/04 16:36:04;;;;;;;1.47;1.30;;;8.40;99.90;;;;;;5076572;28;20444;-68
2022/02/04 16:38:31;;;;;;;1.70;1.20;;;8.10;99.90;;;;;;5076366;28;20449;-69
2022/02/04 16:41:04;;;;;;;1.83;1.73;;;7.90;99.90;;;;;;5076772;28;20451;-78
2022/02/04 16:43:32;;;;;;;1.53;1.30;;;7.70;99.90;;;;;;5076609;28;20445;-74
2022/02/04 16:46:02;;;;;;;5.50;0.87;;;7.50;99.90;;;;;;5076320;28;20447;-74
2022/02/04 16:48:28;;;;;;;0.80;0.80;;;7.50;99.90;;;;;;5076427;28;20868;-74
2022/02/04 16:50:55;;;;;;;0.50;0.50;;;7.20;99.90;;;;;;5076466;28;20432;-75
2022/02/04 16:53:22;;;;;;;0.50;0.50;;;7.10;99.90;;;;;;5076006;28;20451;-74
2022/02/04 16:55:49;;;;;;;0.80;0.80;;;7.00;99.90;;;;;;5076406;28;20437;-75
2022/02/04 16:58:17;;;;;;;1.03;1.03;;;7.00;99.90;;;;;;5076046;28;20449;-75
2022/02/04 17:00:43;;;;;;;0.80;0.80;;;6.90;99.90;;;;;;5076101;28;20469;-75
2022/02/04 17:03:11;;;;;;;1.13;1.10;;;6.80;99.90;;;;;;5076166;28;20464;-75
2022/02/04 17:05:49;;;;;;;1.13;1.13;;;6.70;99.90;;;;;;5075871;28;20794;-68
2022/02/04 17:08:22;;;;;;;0.93;0.93;;;6.60;99.90;;;;;;5075736;28;20433;-68
2022/02/04 17:10:54;;;;;;;0.90;0.90;;;6.60;99.90;;;;;;5076084;28;20429;-68
2022/02/04 17:13:23;;;;;;;0.80;0.80;;;6.50;99.90;;;;;;5075565;28;20896;-68